sensor_id;sensor_type;location;lat;lon;timestamp;temperature;humidity
19224;DHT22;9746;47.180;9.776;2024-01-30T06:03:43;-1.00;99.90
19224;DHT22;9746;47.180;9.776;2024-01-30T06:06:10;-0.90;99.90
19224;DHT22;9746;47.180;9.776;2024-01-30T06:09:00;-0.90;99.90
19224;DHT22;9746;47.180;9.776;2024-01-30T06:11:27;-0.90;99.90
19224;DHT22;9746;47.180;9.776;2024-01-30T06:14:08;-0.90;99.90
19224;DHT22;9746;47.180;9.776;2024-01-30T06:16:36;-0.80;99.90
19224;DHT22;9746;47.180;9.776;2024-01-30T06:19:06;-0.90;99.90
19224;DHT22;9746;47.180;9.776;2024-01-30T06:21:33;-0.80;99.90
19224;DHT22;9746;47.180;9.776;2024-01-30T06:24:02;-0.80;99.90
19224;DHT22;9746;47.180;9.776;2024-01-30T06:26:30;-0.90;99.90
19224;DHT22;9746;47.180;9.776;2024-01-30T06:29:05;-0.90;99.90
19224;DHT22;9746;47.180;9.776;2024-01-30T06:31:33;-0.90;99.90
19224;DHT22;9746;47.180;9.776;2024-01-30T06:34:09;-0.90;99.90
19224;DHT22;9746;47.180;9.776;2024-01-30T06:36:37;-0.90;99.90
19224;DHT22;9746;47.180;9.776;2024-01-30T06:39:07;-0.90;99.90
19224;DHT22;9746;47.180;9.776;2024-01-30T06:41:34;-1.00;99.90
19224;DHT22;9746;47.180;9.776;2024-01-30T06:44:02;-0.90;99.90
19224;DHT22;9746;47.180;9.776;2024-01-30T06:46:32;-0.90;99.90
19224;DHT22;9746;47.180;9.776;2024-01-30T06:49:00;-0.80;99.90
19224;DHT22;9746;47.180;9.776;2024-01-30T06:51:29;-0.90;99.90
19224;DHT22;9746;47.180;9.776;2024-01-30T06:53:56;-1.00;99.90
19224;DHT22;9746;47.180;9.776;2024-01-30T06:56:24;-1.00;99.90
19224;DHT22;9746;47.180;9.776;2024-01-30T06:58:51;-1.00;99.90
19224;DHT22;9746;47.180;9.776;2024-01-30T07:01:19;-1.00;99.90
19224;DHT22;9746;47.180;9.776;2024-01-30T07:03:46;-1.00;99.90
19224;DHT22;9746;47.180;9.776;2024-01-30T07:06:14;-1.00;99.90
19224;DHT22;9746;47.180;9.776;2024-01-30T07:08:43;-1.00;99.90
19224;DHT22;9746;47.180;9.776;2024-01-30T07:11:10;-0.90;99.90
19224;DHT22;9746;47.180;9.776;2024-01-30T07:13:38;-0.80;99.90
19224;DHT22;9746;47.180;9.776;2024-01-30T07:16:06;-0.80;99.90
19224;DHT22;9746;47.180;9.776;2024-01-30T07:18:34;-0.70;99.90
19224;DHT22;9746;47.180;9.776;2024-01-30T07:21:01;-0.60;99.90
19224;DHT22;9746;47.180;9.776;2024-01-30T07:23:29;-0.70;99.90
19224;DHT22;9746;47.180;9.776;2024-01-30T07:26:06;-0.80;99.90
19224;DHT22;9746;47.180;9.776;2024-01-30T07:28:34;-0.80;99.90
19224;DHT22;9746;47.180;9.776;2024-01-30T07:31:01;-0.70;99.90
19224;DHT22;9746;47.180;9.776;2024-01-30T07:33:29;-0.70;99.90
19224;DHT22;9746;47.180;9.776;2024-01-30T07:35:56;-0.60;99.90
19224;DHT22;9746;47.180;9.776;2024-01-30T07:38:24;-0.60;99.90
19224;DHT22;9746;47.180;9.776;2024-01-30T07:40:51;-0.70;99.90
19224;DHT22;9746;47.180;9.776;2024-01-30T07:43:20;-0.70;99.90
19224;DHT22;9746;47.180;9.776;2024-01-30T07:45:48;-0.70;99.90
19224;DHT22;9746;47.180;9.776;2024-01-30T07:48:15;-0.70;99.90
19224;DHT22;9746;47.180;9.776;2024-01-30T07:50:43;-0.60;99.90
19224;DHT22;9746;47.180;9.776;2024-01-30T07:53:10;-0.50;99.90
19224;DHT22;9746;47.180;9.776;2024-01-30T07:55:38;-0.40;99.90
19224;DHT22;9746;47.180;9.776;2024-01-30T07:58:17;-0.30;99.90
19224;DHT22;9746;47.180;9.776;2024-01-30T08:00:46;-0.30;99.90
19224;DHT22;9746;47.180;9.776;2024-01-30T08:03:14;-0.20;99.90
19224;DHT22;9746;47.180;9.776;2024-01-30T08:05:42;-0.10;99.90
19224;DHT22;9746;47.180;9.776;2024-01-30T08:08:09;0.00;99.90
19224;DHT22;9746;47.180;9.776;2024-01-30T08:10:37;0.10;99.90
19224;DHT22;9746;47.180;9.776;2024-01-30T08:13:04;0.30;99.90
19224;DHT22;9746;47.180;9.776;2024-01-30T08:15:32;0.40;99.90
19224;DHT22;9746;47.180;9.776;2024-01-30T08:18:01;0.60;99.90
19224;DHT22;9746;47.180;9.776;2024-01-30T08:20:29;0.70;99.90
19224;DHT22;9746;47.180;9.776;2024-01-30T08:22:57;0.70;99.90
19224;DHT22;9746;47.180;9.776;2024-01-30T08:25:26;0.80;99.90
19224;DHT22;9746;47.180;9.776;2024-01-30T08:27:53;1.00;99.90
19224;DHT22;9746;47.180;9.776;2024-01-30T08:30:21;1.20;99.90
19224;DHT22;9746;47.180;9.776;2024-01-30T08:32:49;1.40;99.90
19224;DHT22;9746;47.180;9.776;2024-01-30T08:35:18;1.60;99.90
19224;DHT22;9746;47.180;9.776;2024-01-30T08:37:45;1.90;99.90
19224;DHT22;9746;47.180;9.776;2024-01-30T08:40:13;2.10;99.90
19224;DHT22;9746;47.180;9.776;2024-01-30T08:42:41;2.30;99.90
19224;DHT22;9746;47.180;9.776;2024-01-30T08:45:09;2.50;99.90
19224;DHT22;9746;47.180;9.776;2024-01-30T08:47:37;2.70;99.90
19224;DHT22;9746;47.180;9.776;2024-01-30T08:50:07;2.80;99.90
19224;DHT22;9746;47.180;9.776;2024-01-30T08:52:36;2.90;99.90
19224;DHT22;9746;47.180;9.776;2024-01-30T08:55:04;3.10;99.90
19224;DHT22;9746;47.180;9.776;2024-01-30T08:57:31;3.20;99.90
19224;DHT22;9746;47.180;9.776;2024-01-30T09:00:00;3.50;99.90
19224;DHT22;9746;47.180;9.776;2024-01-30T09:02:32;3.80;99.90
19224;DHT22;9746;47.180;9.776;2024-01-30T09:04:59;4.20;99.90
19224;DHT22;9746;47.180;9.776;2024-01-30T09:07:27;4.40;99.90
19224;DHT22;9746;47.180;9.776;2024-01-30T09:09:57;4.70;99.90
19224;DHT22;9746;47.180;9.776;2024-01-30T09:12:24;5.10;99.90
19224;DHT22;9746;47.180;9.776;2024-01-30T09:14:52;5.40;99.90
19224;DHT22;9746;47.180;9.776;2024-01-30T09:17:19;5.80;99.90
19224;DHT22;9746;47.180;9.776;2024-01-30T09:19:46;6.20;99.90
19224;DHT22;9746;47.180;9.776;2024-01-30T09:22:14;6.50;99.90
19224;DHT22;9746;47.180;9.776;2024-01-30T09:24:42;6.60;99.90
19224;DHT22;9746;47.180;9.776;2024-01-30T09:27:11;6.80;99.90
19224;DHT22;9746;47.180;9.776;2024-01-30T09:29:39;7.00;99.90
19224;DHT22;9746;47.180;9.776;2024-01-30T09:32:07;7.20;99.90
19224;DHT22;9746;47.180;9.776;2024-01-30T09:34:38;7.30;99.90
19224;DHT22;9746;47.180;9.776;2024-01-30T09:37:05;7.40;99.90
19224;DHT22;9746;47.180;9.776;2024-01-30T09:39:32;7.40;99.90
19224;DHT22;9746;47.180;9.776;2024-01-30T09:42:05;7.40;99.90
19224;DHT22;9746;47.180;9.776;2024-01-30T09:44:35;7.70;99.90
19224;DHT22;9746;47.180;9.776;2024-01-30T09:47:05;7.90;99.90
19224;DHT22;9746;47.180;9.776;2024-01-30T09:49:32;8.10;99.90
19224;DHT22;9746;47.180;9.776;2024-01-30T09:52:00;8.20;99.90
19224;DHT22;9746;47.180;9.776;2024-01-30T09:54:30;8.30;99.90
19224;DHT22;9746;47.180;9.776;2024-01-30T09:56:57;8.50;99.90
19224;DHT22;9746;47.180;9.776;2024-01-30T09:59:25;8.70;99.90
19224;DHT22;9746;47.180;9.776;2024-01-30T10:01:54;8.90;99.90
19224;DHT22;9746;47.180;9.776;2024-01-30T10:04:22;9.20;99.90
19224;DHT22;9746;47.180;9.776;2024-01-30T10:06:51;9.40;99.90
19224;DHT22;9746;47.180;9.776;2024-01-30T10:09:18;9.70;99.90
19224;DHT22;9746;47.180;9.776;2024-01-30T10:11:46;9.80;99.90
19224;DHT22;9746;47.180;9.776;2024-01-30T10:14:14;10.10;99.90
19224;DHT22;9746;47.180;9.776;2024-01-30T10:16:42;10.60;99.90
19224;DHT22;9746;47.180;9.776;2024-01-30T10:19:13;10.90;99.90
19224;DHT22;9746;47.180;9.776;2024-01-30T10:21:41;11.20;99.90
19224;DHT22;9746;47.180;9.776;2024-01-30T10:24:08;11.50;99.90
19224;DHT22;9746;47.180;9.776;2024-01-30T10:26:38;11.80;99.90
19224;DHT22;9746;47.180;9.776;2024-01-30T10:29:06;12.00;99.90
19224;DHT22;9746;47.180;9.776;2024-01-30T10:31:33;12.40;99.90
19224;DHT22;9746;47.180;9.776;2024-01-30T10:34:00;12.70;99.90
19224;DHT22;9746;47.180;9.776;2024-01-30T10:36:29;13.00;99.90
19224;DHT22;9746;47.180;9.776;2024-01-30T10:39:00;13.30;99.90
19224;DHT22;9746;47.180;9.776;2024-01-30T10:41:31;13.70;99.90
19224;DHT22;9746;47.180;9.776;2024-01-30T10:44:09;13.90;99.90
19224;DHT22;9746;47.180;9.776;2024-01-30T10:46:38;14.10;99.90
19224;DHT22;9746;47.180;9.776;2024-01-30T10:49:06;14.30;99.90
19224;DHT22;9746;47.180;9.776;2024-01-30T10:51:37;14.30;99.90
19224;DHT22;9746;47.180;9.776;2024-01-30T10:54:05;14.40;99.90
19224;DHT22;9746;47.180;9.776;2024-01-30T10:56:34;14.50;99.90
19224;DHT22;9746;47.180;9.776;2024-01-30T10:59:02;14.80;99.90
19224;DHT22;9746;47.180;9.776;2024-01-30T11:01:31;14.90;99.90
19224;DHT22;9746;47.180;9.776;2024-01-30T11:03:58;15.10;99.90
19224;DHT22;9746;47.180;9.776;2024-01-30T11:06:26;15.10;99.90
19224;DHT22;9746;47.180;9.776;2024-01-30T11:09:04;15.10;99.90
19224;DHT22;9746;47.180;9.776;2024-01-30T11:11:49;15.00;99.90
19224;DHT22;9746;47.180;9.776;2024-01-30T11:14:16;15.00;99.90
19224;DHT22;9746;47.180;9.776;2024-01-30T11:16:43;14.90;99.90
19224;DHT22;9746;47.180;9.776;2024-01-30T11:19:11;14.50;99.90
19224;DHT22;9746;47.180;9.776;2024-01-30T11:21:41;14.40;99.90
19224;DHT22;9746;47.180;9.776;2024-01-30T11:24:11;14.30;99.90
19224;DHT22;9746;47.180;9.776;2024-01-30T11:26:42;14.10;99.90
19224;DHT22;9746;47.180;9.776;2024-01-30T11:29:09;13.90;99.90
19224;DHT22;9746;47.180;9.776;2024-01-30T11:31:36;13.60;99.90
19224;DHT22;9746;47.180;9.776;2024-01-30T11:34:04;13.40;99.90
19224;DHT22;9746;47.180;9.776;2024-01-30T11:36:35;13.20;99.90
19224;DHT22;9746;47.180;9.776;2024-01-30T11:39:03;13.00;99.90
19224;DHT22;9746;47.180;9.776;2024-01-30T11:41:34;13.00;99.90
19224;DHT22;9746;47.180;9.776;2024-01-30T11:44:04;13.30;99.90
19224;DHT22;9746;47.180;9.776;2024-01-30T11:46:35;13.50;99.90
19224;DHT22;9746;47.180;9.776;2024-01-30T11:49:03;13.60;99.90
19224;DHT22;9746;47.180;9.776;2024-01-30T11:51:31;13.70;99.90
19224;DHT22;9746;47.180;9.776;2024-01-30T11:54:00;13.70;99.90
19224;DHT22;9746;47.180;9.776;2024-01-30T11:56:30;13.60;99.90
19224;DHT22;9746;47.180;9.776;2024-01-30T11:58:59;13.60;99.90
19224;DHT22;9746;47.180;9.776;2024-01-30T12:01:29;13.70;99.90
19224;DHT22;9746;47.180;9.776;2024-01-30T12:03:57;13.60;99.90
19224;DHT22;9746;47.180;9.776;2024-01-30T12:06:31;13.60;99.90
19224;DHT22;9746;47.180;9.776;2024-01-30T12:09:00;13.70;99.90
19224;DHT22;9746;47.180;9.776;2024-01-30T12:11:30;14.00;99.90
19224;DHT22;9746;47.180;9.776;2024-01-30T12:13:59;14.40;99.90
19224;DHT22;9746;47.180;9.776;2024-01-30T12:16:27;14.80;99.90
19224;DHT22;9746;47.180;9.776;2024-01-30T12:19:00;15.30;99.90
19224;DHT22;9746;47.180;9.776;2024-01-30T12:21:29;15.80;99.90
19224;DHT22;9746;47.180;9.776;2024-01-30T12:23:57;16.20;99.90
19224;DHT22;9746;47.180;9.776;2024-01-30T12:26:30;16.60;99.90
19224;DHT22;9746;47.180;9.776;2024-01-30T12:29:00;16.90;99.90
19224;DHT22;9746;47.180;9.776;2024-01-30T12:31:32;17.40;99.90
19224;DHT22;9746;47.180;9.776;2024-01-30T12:34:00;17.70;99.90
19224;DHT22;9746;47.180;9.776;2024-01-30T12:36:29;18.20;99.90
19224;DHT22;9746;47.180;9.776;2024-01-30T12:38:57;18.30;99.90
19224;DHT22;9746;47.180;9.776;2024-01-30T12:41:27;18.40;99.90
19224;DHT22;9746;47.180;9.776;2024-01-30T12:43:57;18.10;99.90
19224;DHT22;9746;47.180;9.776;2024-01-30T12:46:29;17.80;99.90
19224;DHT22;9746;47.180;9.776;2024-01-30T12:48:58;17.70;99.90
19224;DHT22;9746;47.180;9.776;2024-01-30T12:51:36;17.20;99.90
19224;DHT22;9746;47.180;9.776;2024-01-30T12:54:08;17.20;99.90
19224;DHT22;9746;47.180;9.776;2024-01-30T12:56:41;16.70;99.90
19224;DHT22;9746;47.180;9.776;2024-01-30T12:59:09;16.70;99.90
19224;DHT22;9746;47.180;9.776;2024-01-30T13:01:42;17.10;99.90
19224;DHT22;9746;47.180;9.776;2024-01-30T13:04:10;17.70;99.90
19224;DHT22;9746;47.180;9.776;2024-01-30T13:06:38;18.00;99.90
19224;DHT22;9746;47.180;9.776;2024-01-30T13:09:05;18.20;99.90
19224;DHT22;9746;47.180;9.776;2024-01-30T13:11:36;18.30;99.10
19224;DHT22;9746;47.180;9.776;2024-01-30T13:14:04;18.60;99.20
19224;DHT22;9746;47.180;9.776;2024-01-30T13:16:35;18.70;98.00
19224;DHT22;9746;47.180;9.776;2024-01-30T13:19:06;18.50;97.10
19224;DHT22;9746;47.180;9.776;2024-01-30T13:21:34;18.60;97.00
19224;DHT22;9746;47.180;9.776;2024-01-30T13:24:03;19.20;96.90
19224;DHT22;9746;47.180;9.776;2024-01-30T13:26:32;19.60;95.20
19224;DHT22;9746;47.180;9.776;2024-01-30T13:29:03;19.90;95.90
19224;DHT22;9746;47.180;9.776;2024-01-30T13:31:34;20.50;94.50
19224;DHT22;9746;47.180;9.776;2024-01-30T13:34:02;20.90;93.50
19224;DHT22;9746;47.180;9.776;2024-01-30T13:36:33;21.50;93.60
19224;DHT22;9746;47.180;9.776;2024-01-30T13:39:03;22.20;92.80
19224;DHT22;9746;47.180;9.776;2024-01-30T13:41:38;22.80;91.20
19224;DHT22;9746;47.180;9.776;2024-01-30T13:44:05;22.80;89.30
19224;DHT22;9746;47.180;9.776;2024-01-30T13:46:45;22.10;89.30
19224;DHT22;9746;47.180;9.776;2024-01-30T13:49:13;21.50;88.40
19224;DHT22;9746;47.180;9.776;2024-01-30T13:51:50;20.80;89.70
19224;DHT22;9746;47.180;9.776;2024-01-30T13:54:17;20.20;90.30
19224;DHT22;9746;47.180;9.776;2024-01-30T13:56:45;20.10;90.70
19224;DHT22;9746;47.180;9.776;2024-01-30T13:59:12;19.80;91.00
19224;DHT22;9746;47.180;9.776;2024-01-30T14:01:40;19.50;91.00
19224;DHT22;9746;47.180;9.776;2024-01-30T14:04:07;19.20;91.50
19224;DHT22;9746;47.180;9.776;2024-01-30T14:06:36;19.30;91.60
19224;DHT22;9746;47.180;9.776;2024-01-30T14:09:05;19.40;91.70
19224;DHT22;9746;47.180;9.776;2024-01-30T14:11:33;19.30;92.00
19224;DHT22;9746;47.180;9.776;2024-01-30T14:14:00;19.10;91.50
19224;DHT22;9746;47.180;9.776;2024-01-30T14:16:28;18.70;91.20
19224;DHT22;9746;47.180;9.776;2024-01-30T14:18:55;18.30;91.30
19224;DHT22;9746;47.180;9.776;2024-01-30T14:21:23;17.90;91.90
19224;DHT22;9746;47.180;9.776;2024-01-30T14:23:50;17.50;91.80
19224;DHT22;9746;47.180;9.776;2024-01-30T14:26:19;17.00;92.00
19224;DHT22;9746;47.180;9.776;2024-01-30T14:28:47;16.70;92.20
19224;DHT22;9746;47.180;9.776;2024-01-30T14:31:15;16.50;92.50
19224;DHT22;9746;47.180;9.776;2024-01-30T14:33:51;16.10;93.00
19224;DHT22;9746;47.180;9.776;2024-01-30T14:36:19;15.70;93.30
19224;DHT22;9746;47.180;9.776;2024-01-30T14:42:03;15.00;94.10
19224;DHT22;9746;47.180;9.776;2024-01-30T14:44:31;14.60;94.40
19224;DHT22;9746;47.180;9.776;2024-01-30T14:47:00;14.30;94.90
19224;DHT22;9746;47.180;9.776;2024-01-30T14:49:28;14.20;95.10
19224;DHT22;9746;47.180;9.776;2024-01-30T14:51:56;13.80;95.50
19224;DHT22;9746;47.180;9.776;2024-01-30T14:54:24;13.70;95.80
19224;DHT22;9746;47.180;9.776;2024-01-30T14:56:52;13.40;96.30
19224;DHT22;9746;47.180;9.776;2024-01-30T14:59:21;13.20;96.60
19224;DHT22;9746;47.180;9.776;2024-01-30T15:01:51;12.80;97.00
19224;DHT22;9746;47.180;9.776;2024-01-30T15:04:18;12.70;97.50
19224;DHT22;9746;47.180;9.776;2024-01-30T15:06:46;12.60;97.70
19224;DHT22;9746;47.180;9.776;2024-01-30T15:09:16;12.40;98.20
19224;DHT22;9746;47.180;9.776;2024-01-30T15:11:44;12.30;98.60
19224;DHT22;9746;47.180;9.776;2024-01-30T15:14:18;12.20;98.90
19224;DHT22;9746;47.180;9.776;2024-01-30T15:16:46;12.10;99.30
19224;DHT22;9746;47.180;9.776;2024-01-30T15:19:17;12.00;99.90
19224;DHT22;9746;47.180;9.776;2024-01-30T15:21:45;11.80;99.90
19224;DHT22;9746;47.180;9.776;2024-01-30T15:24:20;11.40;99.90
19224;DHT22;9746;47.180;9.776;2024-01-30T15:26:50;11.10;99.90
19224;DHT22;9746;47.180;9.776;2024-01-30T15:29:19;10.80;99.90
19224;DHT22;9746;47.180;9.776;2024-01-30T15:31:50;10.60;99.90
19224;DHT22;9746;47.180;9.776;2024-01-30T15:34:19;10.50;99.90
19224;DHT22;9746;47.180;9.776;2024-01-30T15:36:49;10.40;99.90
19224;DHT22;9746;47.180;9.776;2024-01-30T15:39:20;10.20;99.90
19224;DHT22;9746;47.180;9.776;2024-01-30T15:41:50;10.10;99.90
19224;DHT22;9746;47.180;9.776;2024-01-30T15:44:19;10.00;99.90
19224;DHT22;9746;47.180;9.776;2024-01-30T15:46:48;9.90;99.90
19224;DHT22;9746;47.180;9.776;2024-01-30T15:49:24;9.70;99.90
19224;DHT22;9746;47.180;9.776;2024-01-30T15:51:53;9.60;99.90
19224;DHT22;9746;47.180;9.776;2024-01-30T15:54:32;9.40;99.90
19224;DHT22;9746;47.180;9.776;2024-01-30T15:57:01;9.30;99.90
19224;DHT22;9746;47.180;9.776;2024-01-30T15:59:28;9.10;99.90
19224;DHT22;9746;47.180;9.776;2024-01-30T16:01:56;8.90;99.90
19224;DHT22;9746;47.180;9.776;2024-01-30T16:04:26;8.70;99.90
19224;DHT22;9746;47.180;9.776;2024-01-30T16:06:55;8.70;99.90
19224;DHT22;9746;47.180;9.776;2024-01-30T16:09:23;8.70;99.90
19224;DHT22;9746;47.180;9.776;2024-01-30T16:11:51;8.70;99.90
19224;DHT22;9746;47.180;9.776;2024-01-30T16:14:24;8.80;99.90
19224;DHT22;9746;47.180;9.776;2024-01-30T16:16:51;8.70;99.90
19224;DHT22;9746;47.180;9.776;2024-01-30T16:19:26;8.50;99.90
19224;DHT22;9746;47.180;9.776;2024-01-30T16:21:54;8.30;99.90
19224;DHT22;9746;47.180;9.776;2024-01-30T16:24:28;8.20;99.90
19224;DHT22;9746;47.180;9.776;2024-01-30T16:26:55;8.00;99.90
19224;DHT22;9746;47.180;9.776;2024-01-30T16:29:24;7.80;99.90
19224;DHT22;9746;47.180;9.776;2024-01-30T16:31:51;7.70;99.90
19224;DHT22;9746;47.180;9.776;2024-01-30T16:34:27;7.50;99.90
19224;DHT22;9746;47.180;9.776;2024-01-30T16:36:54;7.50;99.90
19224;DHT22;9746;47.180;9.776;2024-01-30T16:39:22;7.30;99.90
19224;DHT22;9746;47.180;9.776;2024-01-30T16:41:50;7.20;99.90
19224;DHT22;9746;47.180;9.776;2024-01-30T16:44:27;7.10;99.90
19224;DHT22;9746;47.180;9.776;2024-01-30T16:46:55;6.90;99.90
19224;DHT22;9746;47.180;9.776;2024-01-30T16:49:26;6.80;99.90
19224;DHT22;9746;47.180;9.776;2024-01-30T16:51:55;6.70;99.90
19224;DHT22;9746;47.180;9.776;2024-01-30T16:54:23;6.60;99.90
19224;DHT22;9746;47.180;9.776;2024-01-30T16:56:51;6.60;99.90
19224;DHT22;9746;47.180;9.776;2024-01-30T16:59:21;6.50;99.90
19224;DHT22;9746;47.180;9.776;2024-01-30T17:01:48;6.50;99.90
19224;DHT22;9746;47.180;9.776;2024-01-30T17:04:16;6.50;99.90
19224;DHT22;9746;47.180;9.776;2024-01-30T17:06:48;6.50;99.90
19224;DHT22;9746;47.180;9.776;2024-01-30T17:09:22;6.50;99.90
19224;DHT22;9746;47.180;9.776;2024-01-30T17:11:50;6.20;99.90
19224;DHT22;9746;47.180;9.776;2024-01-30T17:14:27;6.10;99.90
19224;DHT22;9746;47.180;9.776;2024-01-30T17:16:54;6.00;99.90
19224;DHT22;9746;47.180;9.776;2024-01-30T17:19:22;6.00;99.90
19224;DHT22;9746;47.180;9.776;2024-01-30T17:21:50;5.90;99.90
19224;DHT22;9746;47.180;9.776;2024-01-30T17:24:28;5.90;99.90
19224;DHT22;9746;47.180;9.776;2024-01-30T17:27:04;5.80;99.90
19224;DHT22;9746;47.180;9.776;2024-01-30T17:29:32;5.80;99.90
19224;DHT22;9746;47.180;9.776;2024-01-30T17:31:59;5.80;99.90
19224;DHT22;9746;47.180;9.776;2024-01-30T17:34:29;5.80;99.90
19224;DHT22;9746;47.180;9.776;2024-01-30T17:36:58;5.70;99.90
19224;DHT22;9746;47.180;9.776;2024-01-30T17:39:44;5.70;99.90
19224;DHT22;9746;47.180;9.776;2024-01-30T17:42:11;5.60;99.90
19224;DHT22;9746;47.180;9.776;2024-01-30T17:45:00;5.60;99.90
19224;DHT22;9746;47.180;9.776;2024-01-30T17:47:28;5.60;99.90
19224;DHT22;9746;47.180;9.776;2024-01-30T17:49:56;5.60;99.90
19224;DHT22;9746;47.180;9.776;2024-01-30T17:52:25;5.50;99.90
19224;DHT22;9746;47.180;9.776;2024-01-30T17:55:04;5.50;99.90
19224;DHT22;9746;47.180;9.776;2024-01-30T17:57:31;5.50;99.90
19224;DHT22;9746;47.180;9.776;2024-01-30T18:00:09;5.50;99.90
19224;DHT22;9746;47.180;9.776;2024-01-30T18:02:37;5.40;99.90
19224;DHT22;9746;47.180;9.776;2024-01-30T18:05:06;5.40;99.90
19224;DHT22;9746;47.180;9.776;2024-01-30T18:07:36;5.30;99.90
19224;DHT22;9746;47.180;9.776;2024-01-30T18:10:27;5.30;99.90
19224;DHT22;9746;47.180;9.776;2024-01-30T18:12:54;5.10;99.90
19224;DHT22;9746;47.180;9.776;2024-01-30T18:15:32;4.90;99.90
19224;DHT22;9746;47.180;9.776;2024-01-30T18:17:59;4.90;99.90
19224;DHT22;9746;47.180;9.776;2024-01-30T18:20:36;4.80;99.90
19224;DHT22;9746;47.180;9.776;2024-01-30T18:23:04;4.90;99.90
19224;DHT22;9746;47.180;9.776;2024-01-30T18:25:36;4.80;99.90
19224;DHT22;9746;47.180;9.776;2024-01-30T18:28:04;4.80;99.90
19224;DHT22;9746;47.180;9.776;2024-01-30T18:30:31;4.80;99.90
19224;DHT22;9746;47.180;9.776;2024-01-30T18:33:01;4.80;99.90
19224;DHT22;9746;47.180;9.776;2024-01-30T18:35:42;4.80;99.90
19224;DHT22;9746;47.180;9.776;2024-01-30T18:38:11;4.80;99.90
19224;DHT22;9746;47.180;9.776;2024-01-30T18:40:40;4.80;99.90
19224;DHT22;9746;47.180;9.776;2024-01-30T18:43:07;4.80;99.90
19224;DHT22;9746;47.180;9.776;2024-01-30T18:45:35;4.70;99.90
19224;DHT22;9746;47.180;9.776;2024-01-30T18:48:03;4.60;99.90
19224;DHT22;9746;47.180;9.776;2024-01-30T18:50:35;4.60;99.90
19224;DHT22;9746;47.180;9.776;2024-01-30T18:53:03;4.60;99.90
19224;DHT22;9746;47.180;9.776;2024-01-30T18:55:40;4.60;99.90
19224;DHT22;9746;47.180;9.776;2024-01-30T18:58:10;4.60;99.90
19224;DHT22;9746;47.180;9.776;2024-01-30T19:00:40;4.60;99.90
19224;DHT22;9746;47.180;9.776;2024-01-30T19:03:09;4.60;99.90
19224;DHT22;9746;47.180;9.776;2024-01-30T19:05:36;4.60;99.90
19224;DHT22;9746;47.180;9.776;2024-01-30T19:08:05;4.50;99.90
19224;DHT22;9746;47.180;9.776;2024-01-30T19:10:40;4.50;99.90
19224;DHT22;9746;47.180;9.776;2024-01-30T19:13:08;4.40;99.90
19224;DHT22;9746;47.180;9.776;2024-01-30T19:15:44;4.40;99.90
19224;DHT22;9746;47.180;9.776;2024-01-30T19:18:13;4.40;99.90
19224;DHT22;9746;47.180;9.776;2024-01-30T19:20:40;4.30;99.90
19224;DHT22;9746;47.180;9.776;2024-01-30T19:23:08;4.40;99.90
19224;DHT22;9746;47.180;9.776;2024-01-30T19:25:36;4.40;99.90
19224;DHT22;9746;47.180;9.776;2024-01-30T19:28:05;4.40;99.90
19224;DHT22;9746;47.180;9.776;2024-01-30T19:30:38;4.30;99.90
19224;DHT22;9746;47.180;9.776;2024-01-30T19:33:06;4.20;99.90
19224;DHT22;9746;47.180;9.776;2024-01-30T19:35:36;4.20;99.90
19224;DHT22;9746;47.180;9.776;2024-01-30T19:38:04;4.20;99.90
19224;DHT22;9746;47.180;9.776;2024-01-30T19:40:33;4.20;99.90
19224;DHT22;9746;47.180;9.776;2024-01-30T19:43:01;4.20;99.90
19224;DHT22;9746;47.180;9.776;2024-01-30T19:45:31;4.10;99.90
19224;DHT22;9746;47.180;9.776;2024-01-30T19:47:58;4.00;99.90
19224;DHT22;9746;47.180;9.776;2024-01-30T19:50:28;4.00;99.90
19224;DHT22;9746;47.180;9.776;2024-01-30T19:52:57;4.00;99.90
19224;DHT22;9746;47.180;9.776;2024-01-30T19:55:31;4.10;99.90
19224;DHT22;9746;47.180;9.776;2024-01-30T19:58:00;4.00;99.90
19224;DHT22;9746;47.180;9.776;2024-01-30T20:00:43;4.00;99.90
19224;DHT22;9746;47.180;9.776;2024-01-30T20:03:12;4.00;99.90
19224;DHT22;9746;47.180;9.776;2024-01-30T20:05:40;4.00;99.90
19224;DHT22;9746;47.180;9.776;2024-01-30T20:08:08;4.00;99.90
19224;DHT22;9746;47.180;9.776;2024-01-30T20:10:41;4.00;99.90
19224;DHT22;9746;47.180;9.776;2024-01-30T20:13:09;3.90;99.90
19224;DHT22;9746;47.180;9.776;2024-01-30T20:15:44;3.90;99.90
19224;DHT22;9746;47.180;9.776;2024-01-30T20:18:12;3.80;99.90
19224;DHT22;9746;47.180;9.776;2024-01-30T20:20:40;3.80;99.90
19224;DHT22;9746;47.180;9.776;2024-01-30T20:23:08;3.70;99.90
19224;DHT22;9746;47.180;9.776;2024-01-30T20:25:39;3.70;99.90
19224;DHT22;9746;47.180;9.776;2024-01-30T20:28:06;3.70;99.90
19224;DHT22;9746;47.180;9.776;2024-01-30T20:30:34;3.60;99.90
19224;DHT22;9746;47.180;9.776;2024-01-30T20:33:03;3.60;99.90
19224;DHT22;9746;47.180;9.776;2024-01-30T20:35:33;3.60;99.90
19224;DHT22;9746;47.180;9.776;2024-01-30T20:38:00;3.60;99.90
19224;DHT22;9746;47.180;9.776;2024-01-30T20:40:38;3.60;99.90
19224;DHT22;9746;47.180;9.776;2024-01-30T20:43:05;3.60;99.90
19224;DHT22;9746;47.180;9.776;2024-01-30T20:45:40;3.60;99.90
19224;DHT22;9746;47.180;9.776;2024-01-30T20:48:09;3.70;99.90
19224;DHT22;9746;47.180;9.776;2024-01-30T20:50:37;3.70;99.90
